Tiempo atmosférico en la estación meteorológica de Alburquerque, Badajoz (283 m.)



Fecha
DESCASC
Temp. máxima en grados centígrados (hora)
DESCASC
Temp. mínima en grados centígrados (hora)
DESCASC
Temp. media en grados centígrados
DESCASC
Racha de viento máxima en m/sg (hora)
DESCASC
Velocidad máxima media en intervalos de 10 minutos(hora)
DESCASC
Precipitaciones diarias en mm
DESCASC
Precipitaciones de 00:00 a 06:00 en mm
DESCASC
Precipitaciones de 06:00 a 12:00 en mm
DESCASC
Precipitaciones de 12:00 a 18:00 en mm
DESCASC
Precipitaciones de 18:00 a 24:00 en mm
DESCASC
22-01-2020 9.3 (19:50) 6.9 (06:40) 8.1 8.33 (05:40) 4.44 (05:40) 5.8 0 2.4 1.8 1.6
21-01-2020 11.8 (15:20) 4.1 (08:10) 8 15.28 (03:00) 9.72 (03:00) 0 0 0 0 0
20-01-2020 8.9 (14:40) 4 (08:40) 6.4 16.39 (16:40) 9.17 (16:40) 0 0 0 0 0
19-01-2020 13.1 (14:00) 5.9 (00:00) 9.5 20.28 (14:30) 11.94 (14:40) 0 0 0 0 0
18-01-2020 17.2 (16:20) 8.7 (00:00) 13 10 (20:30) 5 (22:00) 11 1.6 7.4 0.2 1.8
17-01-2020 15.1 (15:00) 8.3 (00:00) 11.7 5.28 (13:40) 3.06 (15:10) 0.2 0.2 0 0 0
16-01-2020 16.2 (15:30) 9.1 (00:00) 12.7 10.83 (14:10) 6.11 (14:30) 1.6 0 0 0 1.6
15-01-2020 16.5 (16:30) 8.3 (00:00) 12.4 7.78 (16:30) 4.44 (17:40) 0.6 0.2 0.4 0 0
14-01-2020 10.3 (20:50) 1.3 (00:00) 5.8 6.39 (21:00) 3.33 (19:10) 0.8 0 0 0.8 0
13-01-2020 12.2 (16:30) -2.5 (-00:0) 4.8 4.72 (16:20) 2.78 (16:20) 0 0 0 0 0
12-01-2020 14.6 (16:30) -2.1 (-00:0) 6.3 3.33 (15:40) 1.67 (16:40) 0 0 0 0 0
11-01-2020 13.9 (16:20) 0 (00:00) 6.9 4.72 (16:20) 2.5 (11:20) 0 0 0 0 0
10-01-2020 13.6 (15:30) 5.3 (00:00) 9.5 8.33 (11:30) 5 (11:40) 0 0 0 0 0
09-01-2020 14.8 (15:50) 0.3 (00:00) 7.6 5.83 (22:00) 2.5 (13:40) 0 0 0 0 0
08-01-2020 15.9 (16:10) -1.2 (-00:0) 7.3 2.78 (16:50) 1.67 (16:50) 0 0 0 0 0
07-01-2020 16.7 (16:20) -0.4 (00:00) 8.2 3.06 (16:00) 1.67 (14:50) 0 0 0 0 0
06-01-2020 15.5 (15:40) -0.6 (-00:0) 7.4 3.33 (14:20) 1.94 (10:40) 0 0 0 0 0
05-01-2020 14.8 (16:00) 0.7 (00:00) 7.8 4.72 (00:20) 3.06 (00:30) 0 0 0 0 0
04-01-2020 12.6 (16:10) 3.1 (00:00) 7.9 8.61 (15:30) 5.56 (12:20) 0 0 0 0 0
03-01-2020 14.8 (15:00) 6.7 (00:00) 10.8 8.61 (15:00) 3.61 (14:40) 0 0 0 0 0
02-01-2020 13.6 (16:00) 0.1 (00:00) 6.9 3.61 (16:00) 2.22 (16:20) 0 0 0 0 0
01-01-2020 16.2 (16:20) 0 (00:00) 8.1 3.06 (14:50) 1.67 (14:00) 0 0 0 0 0
31-12-2019 16.1 (15:40) -0.3 (00:00) 7.9 3.61 (16:10) 2.22 (16:10) 0 0 0 0 0
30-12-2019 16.9 (14:50) 0.6 (00:00) 8.7 3.06 (15:20) 1.67 (15:40) 0 0 0 0 0
29-12-2019 18.7 (16:20) 2.1 (00:00) 10.4 4.72 (14:30) 2.5 (14:30) 0 0 0 0 0
28-12-2019 19.3 (16:10) 4.2 (00:00) 11.7 5 (14:10) 2.78 (18:00) 0 0 0 0 0
27-12-2019 18.3 (15:50) 5.4 (00:00) 11.8 4.72 (13:10) 3.06 (17:20) 0 0 0 0 0
26-12-2019 17.1 (15:20) 6.1 (00:00) 11.6 4.72 (14:00) 2.78 (11:50) 0 0 0 0 0
25-12-2019 18.7 (15:30) 5 (00:00) 11.9 3.06 (06:50) 1.94 (06:50) 0 0 0 0 0
24-12-2019 18.7 (15:40) 4.2 (00:00) 11.5 5 (14:40) 2.5 (15:10) 0.2 0 0.2 0 0

Gráficas

Temp. máximas Temp. mínimas Temp. medias Precipitaciones Rachas de viento máximas Velocidades máximas media en intervalos de 10 minutos

Datos horarios

Fecha y hora oficial Temperatura (ºC) Velocidad del viento (km/h) Dirección del viento Racha (km/h) Dirección de racha Precipitación (mm) Presión (hPa) Tendencia (hPa) Humedad (%)
2020-01-22 23:00:00 7.6 2 Sudoeste 4 Sudoeste 0 -- -- 99
2020-01-22 22:00:00 7.8 3 Norte 4 Sudoeste 0 -- -- 98
2020-01-22 21:00:00 8.2 2 Oeste 15 Sudoeste 1.2 -- -- 96
2020-01-22 20:00:00 9.2 9 Este 21 Este 0.2 -- -- 88
2020-01-22 19:00:00 8.8 10 Este 19 Este 0 -- -- 90
2020-01-22 18:00:00 8.6 10 Este 21 Este 0.2 -- -- 94
2020-01-22 17:00:00 8.6 12 Este 26 Sudeste 0.2 -- -- 94
2020-01-22 16:00:00 8.5 13 Este 23 Este 0.2 -- -- 94
2020-01-22 15:00:00 8.5 13 Este 25 Sudeste 0 -- -- 93
2020-01-22 14:00:00 8.2 15 Este 27 Este 0 -- -- 94
2020-01-22 13:00:00 7.9 14 Este 28 Sudeste 1.2 -- -- 95
2020-01-22 12:00:00 7.4 10 Este 19 Este 1.6 -- -- 96
2020-01-22 11:00:00 7.3 9 Este 21 Este 0.8 -- -- 92
2020-01-22 10:00:00 7.9 10 Este 19 Este 0 -- -- 81
2020-01-22 09:00:00 7.7 7 Este 26 Sudeste 0 -- -- 81
2020-01-22 08:00:00 7.8 12 Este 25 Nordeste 0 -- -- 79
2020-01-22 07:00:00 7.3 12 Este 24 Nordeste 0 -- -- 80
2020-01-22 06:00:00 7.3 12 Este 30 Este 0 -- -- 79
2020-01-22 05:00:00 7.3 12 Este 28 Nordeste 0 -- -- 78
2020-01-22 04:00:00 7.3 12 Nordeste 24 Nordeste 0 -- -- 79
2020-01-22 03:00:00 7.6 6 Este 22 Este 0 -- -- 79
2020-01-22 02:00:00 7.9 16 Nordeste 29 Este 0 -- -- 79
2020-01-22 01:00:00 7.7 12 Este 25 Este 0 -- -- 81
2020-01-22 00:00:00 8 14 Este 30 Este 0 -- -- 79
2020-01-21 23:00:00 8.5 14 Este 31 Este 0 -- -- 73
2020-01-21 22:00:00 8.9 19 Este 36 Este 0 -- -- 72
2020-01-21 21:00:00 8.6 14 Nordeste 34 Nordeste 0 -- -- 70
2020-01-21 20:00:00 8.4 19 Nordeste 35 Norte 0 -- -- 69
2020-01-21 19:00:00 8.5 15 Nordeste 31 Nordeste 0 -- -- 68
2020-01-21 18:00:00 9.7 15 Nordeste 40 Este 0 -- -- 64
2020-01-21 17:00:00 11 21 Nordeste 38 Nordeste 0 -- -- 62
2020-01-21 16:00:00 11.6 24 Nordeste 45 Nordeste 0 -- -- 60
2020-01-21 15:00:00 11.1 20 Este 38 Este 0 -- -- 59
2020-01-21 14:00:00 11 19 Nordeste 42 Nordeste 0 -- -- 59
2020-01-21 13:00:00 10.5 18 Nordeste 39 Este 0 -- -- 59
2020-01-21 12:00:00 9.8 25 Este 49 Nordeste 0 -- -- 59
2020-01-21 11:00:00 8.4 28 Nordeste 45 Nordeste 0 -- -- 62
2020-01-21 10:00:00 6.3 14 Nordeste 33 Nordeste 0 -- -- 68
2020-01-21 09:00:00 4.4 17 Nordeste 36 Nordeste 0 -- -- 72
2020-01-21 08:00:00 4.2 19 Nordeste 35 Nordeste 0 -- -- 72
2020-01-21 07:00:00 4.5 20 Nordeste 37 Nordeste 0 -- -- 72
2020-01-21 06:00:00 4.7 17 Nordeste 38 Nordeste 0 -- -- 74
2020-01-21 05:00:00 5.1 22 Nordeste 38 Nordeste 0 -- -- 71
2020-01-21 04:00:00 4.8 21 Nordeste 52 Este 0 -- -- 71
2020-01-21 03:00:00 8.1 35 Este 55 Este 0 -- -- 58
2020-01-21 02:00:00 7.7 26 Este 46 Nordeste 0 -- -- 60
2020-01-21 01:00:00 7.5 20 Este 39 Este 0 -- -- 62
2020-01-21 00:00:00 7.7 23 Este 47 Este 0 -- -- 61
2020-01-20 23:00:00 7.9 23 Este 45 Este 0 -- -- 61
2020-01-20 22:00:00 7.8 21 Este 41 Nordeste 0 -- -- 60
2020-01-20 21:00:00 7.6 22 Este 40 Nordeste 0 -- -- 61
2020-01-20 20:00:00 7.2 22 Este 53 Este 0 -- -- 63
2020-01-20 19:00:00 6.3 30 Este 51 Este 0 -- -- 71
2020-01-20 18:00:00 6.9 25 Este 54 Este 0 -- -- 66
2020-01-20 17:00:00 8.4 26 Este 59 Este 0 -- -- 55
2020-01-20 16:00:00 8.7 32 Este 57 Este 0 -- -- 50
2020-01-20 15:00:00 8.4 26 Este 48 Este 0 -- -- 48
2020-01-20 14:00:00 8.5 30 Este 50 Nordeste 0 -- -- 45
2020-01-20 13:00:00 8.4 23 Nordeste 52 Nordeste 0 -- -- 50
2020-01-20 12:00:00 6 28 Nordeste 49 Nordeste 0 -- -- 54
2020-01-20 11:00:00 5.4 27 Nordeste 47 Nordeste 0 -- -- 57
2020-01-20 10:00:00 4.2 24 Nordeste 47 Nordeste 0 -- -- 58
2020-01-20 09:00:00 4 25 Nordeste 44 Nordeste 0 -- -- 58
2020-01-20 08:00:00 4.4 24 Nordeste 47 Este 0 -- -- 57
2020-01-20 07:00:00 4.8 23 Nordeste 49 Norte 0 -- -- 56
2020-01-20 06:00:00 5.2 30 Nordeste 51 Nordeste 0 -- -- 55
2020-01-20 05:00:00 5.4 30 Nordeste 46 Nordeste 0 -- -- 54
2020-01-20 04:00:00 5.3 23 Nordeste 49 Nordeste 0 -- -- 55
2020-01-20 03:00:00 5 26 Nordeste 51 Nordeste 0 -- -- 55
2020-01-20 02:00:00 5.3 27 Nordeste 50 Nordeste 0 -- -- 53
2020-01-20 01:00:00 5.7 27 Nordeste 49 Este 0 -- -- 51
2020-01-20 00:00:00 5.9 31 Nordeste 66 Nordeste 0 -- -- 52
2020-01-19 23:00:00 6.4 33 Nordeste 58 Este 0 -- -- 50
2020-01-19 22:00:00 7.1 29 Nordeste 68 Nordeste 0 -- -- 49
2020-01-19 21:00:00 8.2 36 Nordeste 66 Nordeste 0 -- -- 47
2020-01-19 20:00:00 9.2 31 Nordeste 68 Nordeste 0 -- -- 48
2020-01-19 19:00:00 10.3 30 Nordeste 57 Nordeste 0 -- -- 45
2020-01-19 18:00:00 11.3 28 Nordeste 59 Nordeste 0 -- -- 44
2020-01-19 17:00:00 12.1 30 Nordeste 61 Nordeste 0 -- -- 43
2020-01-19 16:00:00 12.7 36 Nordeste 66 Nordeste 0 -- -- 42
2020-01-19 15:00:00 12.7 41 Nordeste 73 Este 0 -- -- 45
2020-01-19 14:00:00 13.1 28 Nordeste 56 Nordeste 0 -- -- 52
2020-01-19 13:00:00 12.3 19 Nordeste 44 Norte 0 -- -- 63
2020-01-19 12:00:00 11.8 24 Nordeste 46 Norte 0 -- -- 66
2020-01-19 11:00:00 10.7 20 Norte 35 Nordeste 0 -- -- 72
2020-01-19 10:00:00 9.1 15 Norte 29 Norte 0 -- -- 81
2020-01-19 09:00:00 7.8 14 Norte 24 Norte 0 -- -- 89
2020-01-19 08:00:00 8.2 12 Norte 21 Norte 0 -- -- 91
2020-01-19 07:00:00 8.1 8 Norte 15 Nordeste 0 -- -- 94
2020-01-19 06:00:00 7.5 3 Norte 6 Norte 0 -- -- 99
2020-01-19 05:00:00 7.1 4 Noroeste 9 Noroeste 0 -- -- 98
2020-01-19 04:00:00 6.7 4 Noroeste 9 Sudoeste 0 -- -- 97
2020-01-19 03:00:00 7.1 4 Sur 10 Sudoeste 0 -- -- 94
2020-01-19 02:00:00 7.8 6 Oeste 23 Noroeste 0 -- -- 91
2020-01-19 01:00:00 7.8 4 Noroeste 17 Norte 0 -- -- 91
2020-01-19 00:00:00 9.5 7 Noroeste 18 Noroeste 0.2 -- -- 89
2020-01-18 23:00:00 10.8 10 Noroeste 31 Noroeste 1.6 -- -- 93
2020-01-18 22:00:00 12.2 18 Noroeste 36 Oeste 0 -- -- 83
2020-01-18 21:00:00 12.4 10 Noroeste 36 Noroeste 0 -- -- 86
2020-01-18 20:00:00 12.8 15 Noroeste 34 Noroeste 0 -- -- 86
2020-01-18 19:00:00 13.8 16 Oeste 36 Oeste 0 -- -- 84
2020-01-18 18:00:00 15.3 14 Oeste 30 Oeste 0 -- -- 81
2020-01-18 17:00:00 16.5 14 Oeste 32 Noroeste 0 -- -- 78
2020-01-18 16:00:00 17 17 Noroeste 30 Oeste 0 -- -- 76
2020-01-18 15:00:00 16.5 13 Oeste 26 Oeste 0 -- -- 82
2020-01-18 14:00:00 17 11 Oeste 23 Noroeste 0 -- -- 81
2020-01-18 13:00:00 14.7 7 Noroeste 18 Norte 0.2 -- -- 99
2020-01-18 12:00:00 12.9 3 Sudeste 9 Sudeste 0.2 -- -- 100
2020-01-18 11:00:00 11.7 4 Sudeste 13 Sudeste 0.8 -- -- 100
2020-01-18 10:00:00 10.9 11 Sudeste 17 Sur 1.6 -- -- 100
2020-01-18 09:00:00 10.5 7 Sudeste 18 Sur 1.8 -- -- 100
2020-01-18 08:00:00 10.6 11 Sur 24 Sur 2.2 -- -- 99
2020-01-18 07:00:00 10 9 Sur 29 Sur 0.8 -- -- 99
2020-01-18 06:00:00 10.2 14 Sur 28 Sudoeste 1.2 -- -- 96
2020-01-18 05:00:00 9.7 7 Sur 14 Sur 0 -- -- 96
2020-01-18 04:00:00 10.1 5 Sudeste 17 Sudeste 0 -- -- 94
2020-01-18 03:00:00 9.9 8 Sudeste 15 Sudeste 0.4 -- -- 97
2020-01-18 02:00:00 10.1 4 Sudeste 10 Sudeste 0 -- -- 97
2020-01-18 01:00:00 9 0 Calma 4 Sur 0 -- -- 99
2020-01-18 00:00:00 8.8 0 Calma 5 Noroeste 0 -- -- 97
2020-01-17 23:00:00 8.8 3 Sudeste 5 Sudeste 0 -- -- 98
2020-01-17 22:00:00 8.9 0 Calma 5 Nordeste 0 -- -- 95
2020-01-17 21:00:00 9.4 0 Calma 3 Sudeste 0 -- -- 94
2020-01-17 20:00:00 9.9 2 Este 5 Sudeste 0 -- -- 92
2020-01-17 19:00:00 10.5 2 Este 4 Oeste 0 -- -- 89
2020-01-17 18:00:00 12.9 3 Oeste 9 Sudoeste 0 -- -- 79
2020-01-17 17:00:00 13.8 6 Sudoeste 17 Oeste 0 -- -- 73
2020-01-17 16:00:00 15.1 11 Oeste 18 Oeste 0 -- -- 69
2020-01-17 15:00:00 15.1 7 Oeste 15 Oeste 0 -- -- 71
2020-01-17 14:00:00 14.4 7 Oeste 19 Oeste 0 -- -- 77
2020-01-17 13:00:00 12.7 5 Oeste 16 Oeste 0 -- -- 95
2020-01-17 12:00:00 11.2 7 Sudoeste 13 Oeste 0 -- -- 100
2020-01-17 11:00:00 10 5 Sudoeste 10 Sudoeste 0 -- -- 100
2020-01-17 10:00:00 9.4 3 Sudoeste 6 Sudoeste 0 -- -- 100
2020-01-17 09:00:00 9.3 0 Calma 6 Oeste 0 -- -- 100
2020-01-17 08:00:00 9.4 3 Sur 5 Sur 0 -- -- 100
2020-01-17 07:00:00 9.5 3 Sur 6 Sudoeste 0 -- -- 100
2020-01-17 06:00:00 9.5 0 Calma 4 Sur 0 -- -- 100
2020-01-17 05:00:00 9.4 0 Calma 4 Sudeste 0 -- -- 100
2020-01-17 04:00:00 9 0 Calma 6 Sudoeste 0 -- -- 100
2020-01-17 03:00:00 9.8 0 Calma 6 Sudeste 0 -- -- 100
2020-01-17 02:00:00 8.3 2 Sudeste 5 Sudeste 0 -- -- 99
2020-01-17 01:00:00 9.3 3 Nordeste 8 Noroeste 0.2 -- -- 99
2020-01-17 00:00:00 9.5 3 Sur 8 Oeste 0 -- -- 96
2020-01-16 23:00:00 10.9 3 Oeste 9 Noroeste 0.2 -- -- 97
2020-01-16 22:00:00 11 5 Oeste 15 Sudoeste 1 -- -- 94
2020-01-16 21:00:00 12.1 9 Sudoeste 34 Sudoeste 0.4 -- -- 82
2020-01-16 20:00:00 14 22 Sudoeste 37 Sudoeste 0 -- -- 67
2020-01-16 19:00:00 13.6 13 Sudoeste 24 Sudoeste 0 -- -- 70
2020-01-16 18:00:00 14.6 18 Sudoeste 31 Sudoeste 0 -- -- 66
2020-01-16 17:00:00 15.4 18 Sudoeste 37 Oeste 0 -- -- 64
2020-01-16 16:00:00 15.6 16 Sudoeste 39 Sudoeste 0 -- -- 60
2020-01-16 15:00:00 15.3 18 Sudoeste 39 Sudoeste 0 -- -- 65
2020-01-16 14:00:00 15.1 14 Sudoeste 33 Sudoeste 0 -- -- 71
2020-01-16 13:00:00 13.1 14 Sudoeste 25 Sudoeste 0 -- -- 83
2020-01-16 12:00:00 12.6 13 Sur 24 Sur 0 -- -- 85
2020-01-16 11:00:00 10.1 9 Sudeste 16 Sur 0 -- -- 93
2020-01-16 10:00:00 9.2 5 Sur 16 Sur 0 -- -- 96
2020-01-16 09:00:00 9.6 11 Sur 16 Sur 0 -- -- 96
2020-01-16 08:00:00 9.9 8 Sur 16 Sur 0 -- -- 96
2020-01-16 07:00:00 10.5 8 Sur 15 Sur 0 -- -- 96
2020-01-16 06:00:00 11.3 9 Sur 18 Sur 0 -- -- 95
2020-01-16 05:00:00 11.6 8 Sur 24 Sudoeste 0 -- -- 95
2020-01-16 04:00:00 12.2 13 Sudoeste 24 Sudoeste 0 -- -- 95
2020-01-16 03:00:00 12.1 11 Sur 23 Sudoeste 0 -- -- 95
2020-01-16 02:00:00 11.9 6 Sur 11 Sur 0 -- -- 94
2020-01-16 01:00:00 12.1 6 Sur 14 Sur 0 -- -- 92
2020-01-16 00:00:00 12 5 Sur 10 Sudeste 0 -- -- 93
2020-01-15 23:00:00 12 3 Sudeste 9 Sur 0 -- -- 92
2020-01-15 22:00:00 12.5 6 Sur 16 Sur 0 -- -- 91
2020-01-15 21:00:00 13.2 8 Sur 22 Sur 0 -- -- 90
2020-01-15 20:00:00 13.7 11 Sur 28 Sur 0 -- -- 89
2020-01-15 19:00:00 14.2 13 Sudoeste 26 Sur 0 -- -- 87
2020-01-15 18:00:00 15 12 Sudoeste 27 Sudoeste 0 -- -- 82
2020-01-15 17:00:00 15.6 14 Sudoeste 28 Sudoeste 0 -- -- 80
2020-01-15 16:00:00 16 14 Sudoeste 28 Oeste 0 -- -- 79
2020-01-15 15:00:00 15.9 12 Sudoeste 24 Sudoeste 0 -- -- 80
2020-01-15 14:00:00 14.7 14 Sudoeste 27 Sudoeste 0 -- -- 86
2020-01-15 13:00:00 13.3 10 Sudoeste 25 Sudoeste 0 -- -- 90
2020-01-15 12:00:00 11.6 10 Sur 17 Sur 0 -- -- 91
2020-01-15 11:00:00 11.2 9 Sur 20 Sur 0 -- -- 90
2020-01-15 10:00:00 10.4 9 Sur 17 Sudoeste 0 -- -- 91
2020-01-15 09:00:00 10.2 12 Sur 24 Sur 0 -- -- 92
2020-01-15 08:00:00 9.3 8 Sur 14 Sur 0.2 -- -- 91
2020-01-15 07:00:00 8.6 7 Sur 14 Sur 0.2 -- -- 92
2020-01-15 06:00:00 8.6 11 Sur 18 Sur 0.2 -- -- 90
2020-01-15 05:00:00 8.7 12 Sur 19 Sur 0 -- -- 87
2020-01-15 04:00:00 8.9 9 Sur 21 Sudoeste 0 -- -- 89
2020-01-15 03:00:00 8.7 11 Sur 22 Sudoeste 0 -- -- 91
2020-01-15 02:00:00 8.4 8 Sur 18 Sudoeste 0 -- -- 92
2020-01-15 01:00:00 8.6 10 Sur 19 Sudeste 0 -- -- 91
2020-01-15 00:00:00 9 9 Sur 15 Sur 0 -- -- 91
2020-01-14 23:00:00 9.6 7 Sur 21 Sudoeste 0 -- -- 89
2020-01-14 22:00:00 10.2 9 Sur 18 Sudoeste 0 -- -- 87
2020-01-14 21:00:00 10.3 10 Sur 23 Sur 0 -- -- 88
2020-01-14 20:00:00 10.1 9 Sur 18 Sur 0 -- -- 90
2020-01-14 19:00:00 9.6 9 Sudeste 15 Sur 0 -- -- 93
2020-01-14 18:00:00 8.8 5 Sudeste 10 Sudeste 0 -- -- 96
2020-01-14 17:00:00 8.2 5 Sudeste 13 Sur 0.8 -- -- 95
2020-01-14 16:00:00 9.2 10 Sur 19 Sur 0 -- -- 83
2020-01-14 15:00:00 9.4 6 Sur 14 Sur 0 -- -- 80
2020-01-14 14:00:00 8.8 6 Sur 13 Sudeste 0 -- -- 80
2020-01-14 13:00:00 8.1 7 Sudeste 11 Sudeste 0 -- -- 82
2020-01-14 12:00:00 7.2 5 Sur 16 Sudeste 0 -- -- 85
2020-01-14 11:00:00 6.1 9 Sur 15 Sudeste 0 -- -- 87
2020-01-14 10:00:00 4.1 5 Sudeste 10 Sudeste 0 -- -- 99
2020-01-14 09:00:00 2.6 0 Calma 9 Sur 0 -- -- 94
2020-01-14 08:00:00 4.7 5 Sur 13 Sudeste 0 -- -- 89
2020-01-14 07:00:00 4.8 3 Sur 10 Sudeste 0 -- -- 91
2020-01-14 06:00:00 3.7 3 Sur 8 Sudeste 0 -- -- 98
2020-01-14 05:00:00 3.2 3 Norte 13 Este 0 -- -- 96
2020-01-14 04:00:00 2.9 3 Nordeste 8 Sur 0 -- -- 98
2020-01-14 03:00:00 2.4 2 Sur 8 Noroeste 0 -- -- 97
2020-01-14 02:00:00 2.6 4 Noroeste 16 Este 0 -- -- 94
2020-01-14 01:00:00 1.8 4 Sudeste 7 Sudeste 0 -- -- 99
2020-01-14 00:00:00 1.3 4 Sudeste 8 Sudeste 0 -- -- 97
2020-01-13 23:00:00 1.5 0 Calma 8 Noroeste 0 -- -- 94
2020-01-13 22:00:00 3.1 2 Sudeste 4 Sudeste 0 -- -- 93
2020-01-13 21:00:00 3.9 0 Calma 4 Nordeste 0 -- -- 91
2020-01-13 20:00:00 5.7 0 Calma 7 Sur 0 -- -- 86
2020-01-13 19:00:00 7.4 5 Sudeste 11 Sur 0 -- -- 81
2020-01-13 18:00:00 10.2 7 Sur 13 Sudoeste 0 -- -- 69
2020-01-13 17:00:00 11.8 8 Oeste 17 Sudoeste 0 -- -- 59
2020-01-13 16:00:00 12 8 Sudoeste 14 Sudoeste 0 -- -- 62
2020-01-13 15:00:00 11.6 7 Sudoeste 14 Sudoeste 0 -- -- 65
2020-01-13 14:00:00 10.6 6 Sur 13 Sur 0 -- -- 67
2020-01-13 13:00:00 8.2 2 Sudeste 7 Noroeste 0 -- -- 78
2020-01-13 12:00:00 4.4 4 Noroeste 9 Noroeste 0 -- -- 93
2020-01-13 11:00:00 2.2 0 Calma 7 Sur 0 -- -- 98
2020-01-13 10:00:00 -0.2 0 Calma 3 Sudeste 0 -- -- 100
2020-01-13 09:00:00 -2 2 Oeste 5 Noroeste 0 -- -- 98
2020-01-13 08:00:00 -1.8 0 Calma 6 Noroeste 0 -- -- 98
2020-01-13 07:00:00 -1.5 4 Este 6 Sudeste 0 -- -- 100
2020-01-13 06:00:00 -1.8 0 Calma 4 Noroeste 0 -- -- 99
2020-01-13 05:00:00 -1.4 0 Calma 0 Calma 0 -- -- 99
2020-01-13 04:00:00 -0.9 0 Calma 4 Sudeste 0 -- -- 98
2020-01-13 03:00:00 -0.7 3 Sudeste 5 Sudeste 0 -- -- 98
2020-01-13 02:00:00 0.4 0 Calma 2 Este 0 -- -- 98
2020-01-13 01:00:00 0.9 0 Calma 5 Noroeste 0 -- -- 97
2020-01-13 00:00:00 1.8 0 Calma 2 Sudeste 0 -- -- 96
2020-01-12 23:00:00 2.3 0 Calma 3 Este 0 -- -- 95
2020-01-12 22:00:00 2.9 0 Calma 5 Sudeste 0 -- -- 92
2020-01-12 21:00:00 4.3 0 Calma 5 Nordeste 0 -- -- 89
2020-01-12 20:00:00 6 5 Nordeste 6 Nordeste 0 -- -- 83
2020-01-12 19:00:00 7.7 2 Este 4 Sudoeste 0 -- -- 78
2020-01-12 18:00:00 12 4 Sudoeste 10 Sudoeste 0 -- -- 60
2020-01-12 17:00:00 13.6 6 Sudoeste 12 Sudoeste 0 -- -- 56
2020-01-12 16:00:00 14.4 0 Calma 12 Oeste 0 -- -- 53
2020-01-12 15:00:00 13.8 4 Sur 9 Sudeste 0 -- -- 50
2020-01-12 14:00:00 12.9 3 Sur 7 Sur 0 -- -- 57
2020-01-12 13:00:00 10.6 3 Oeste 8 Noroeste 0 -- -- 68
2020-01-12 12:00:00 7.4 3 Noroeste 6 Noroeste 0 -- -- 82
2020-01-12 11:00:00 4.1 0 Calma 5 Noroeste 0 -- -- 91
2020-01-12 10:00:00 0.2 4 Sur 6 Sur 0 -- -- 99
2020-01-12 09:00:00 -1.7 4 Noroeste 6 Noroeste 0 -- -- 100
2020-01-12 08:00:00 -1.7 2 Este 5 Nordeste 0 -- -- 98
2020-01-12 07:00:00 -2.1 3 Sudeste 5 Sudeste 0 -- -- 98
2020-01-12 06:00:00 -1.4 0 Calma 4 Sudeste 0 -- -- 98
2020-01-12 05:00:00 -0.7 3 Noroeste 6 Noroeste 0 -- -- 98
2020-01-12 04:00:00 -0.6 0 Calma 3 Sudeste 0 -- -- 98
2020-01-12 03:00:00 -0.4 0 Calma 5 Sudeste 0 -- -- 97
2020-01-12 02:00:00 0 0 Calma 5 Sudeste 0 -- -- 97
2020-01-12 01:00:00 0.7 3 Sudeste 4 Sudeste 0 -- -- 97
2020-01-12 00:00:00 1.6 0 Calma 4 Oeste 0 -- -- 94
2020-01-11 23:00:00 2.4 2 Este 4 Sudeste 0 -- -- 93
2020-01-11 22:00:00 3.5 0 Calma 9 Nordeste 0 -- -- 89
2020-01-11 21:00:00 4.6 2 Nordeste 10 Noroeste 0 -- -- 85
2020-01-11 20:00:00 6.6 2 Noroeste 9 Nordeste 0 -- -- 76
2020-01-11 19:00:00 9.3 5 Nordeste 12 Nordeste 0 -- -- 67
2020-01-11 18:00:00 12 5 Norte 11 Nordeste 0 -- -- 58
2020-01-11 17:00:00 13.4 4 Este 17 Este 0 -- -- 55
2020-01-11 16:00:00 13.6 7 Este 15 Nordeste 0 -- -- 52
2020-01-11 15:00:00 13.4 6 Sudeste 14 Este 0 -- -- 53
2020-01-11 14:00:00 12.9 7 Sudeste 14 Este 0 -- -- 53
2020-01-11 13:00:00 12.1 3 Este 10 Este 0 -- -- 54
2020-01-11 12:00:00 10.7 6 Sudeste 15 Sudeste 0 -- -- 61
2020-01-11 11:00:00 8.1 4 Noroeste 6 Noroeste 0 -- -- 70
2020-01-11 10:00:00 4 3 Sudeste 5 Sudeste 0 -- -- 91
2020-01-11 09:00:00 0 3 Sudoeste 5 Sudoeste 0 -- -- 96
2020-01-11 08:00:00 0.7 0 Calma 5 Nordeste 0 -- -- 96
2020-01-11 07:00:00 0.8 2 Nordeste 5 Nordeste 0 -- -- 96
2020-01-11 06:00:00 1 0 Calma 5 Nordeste 0 -- -- 94
2020-01-11 05:00:00 1.5 0 Calma 7 Nordeste 0 -- -- 95
2020-01-11 04:00:00 1.6 0 Calma 5 Este 0 -- -- 94
2020-01-11 03:00:00 1.8 0 Calma 3 Sudeste 0 -- -- 92
2020-01-11 02:00:00 3 0 Calma 8 Noroeste 0 -- -- 87
2020-01-11 01:00:00 5.4 5 Noroeste 12 Nordeste 0 -- -- 78
2020-01-11 00:00:00 6.2 3 Norte 12 Norte 0 -- -- 75
2020-01-10 23:00:00 7.6 8 Nordeste 20 Nordeste 0 -- -- 70
2020-01-10 22:00:00 8.6 10 Nordeste 24 Nordeste 0 -- -- 65
2020-01-10 21:00:00 9.8 14 Nordeste 27 Nordeste 0 -- -- 61
2020-01-10 20:00:00 9.7 13 Nordeste 22 Nordeste 0 -- -- 62
2020-01-10 19:00:00 10.3 12 Nordeste 21 Nordeste 0 -- -- 59
2020-01-10 18:00:00 12 9 Nordeste 24 Nordeste 0 -- -- 53
2020-01-10 17:00:00 12.9 13 Nordeste 22 Este 0 -- -- 58
2020-01-10 16:00:00 13.4 14 Nordeste 25 Nordeste 0 -- -- 56
2020-01-10 15:00:00 13.5 12 Nordeste 26 Nordeste 0 -- -- 60
2020-01-10 14:00:00 12.6 14 Este 25 Este 0 -- -- 64
2020-01-10 13:00:00 11.8 11 Nordeste 27 Nordeste 0 -- -- 65
2020-01-10 12:00:00 10.4 14 Nordeste 30 Nordeste 0 -- -- 65
2020-01-10 11:00:00 9.2 13 Nordeste 26 Nordeste 0 -- -- 67
2020-01-10 10:00:00 7 13 Norte 24 Norte 0 -- -- 76
2020-01-10 09:00:00 5.8 13 Norte 22 Norte 0 -- -- 78
2020-01-10 08:00:00 5.7 7 Norte 17 Norte 0 -- -- 78
2020-01-10 07:00:00 5.3 6 Norte 15 Noroeste 0 -- -- 80
2020-01-10 06:00:00 6.5 8 Norte 21 Norte 0 -- -- 76
2020-01-10 05:00:00 5.5 4 Norte 15 Noroeste 0 -- -- 85
2020-01-10 04:00:00 5.9 5 Norte 11 Norte 0 -- -- 89
2020-01-10 03:00:00 7.1 6 Norte 23 Norte 0 -- -- 86
2020-01-10 02:00:00 8.1 11 Norte 23 Norte 0 -- -- 85
2020-01-10 01:00:00 6.3 4 Oeste 11 Norte 0 -- -- 95
2020-01-10 00:00:00 7.6 4 Norte 13 Noroeste 0 -- -- 90
2020-01-09 23:00:00 8.6 4 Norte 13 Noroeste 0 -- -- 91
2020-01-09 22:00:00 10.8 9 Noroeste 21 Noroeste 0 -- -- 88
2020-01-09 21:00:00 9.6 0 Calma 6 Nordeste 0 -- -- 97
2020-01-09 20:00:00 9.7 0 Calma 5 Oeste 0 -- -- 93
2020-01-09 19:00:00 11.9 4 Sudoeste 10 Oeste 0 -- -- 86
2020-01-09 18:00:00 12.8 0 Calma 10 Sudoeste 0 -- -- 79
2020-01-09 17:00:00 14 5 Sudoeste 17 Sudoeste 0 -- -- 72
2020-01-09 16:00:00 14.7 8 Sudoeste 13 Sudoeste 0 -- -- 70
2020-01-09 15:00:00 14.1 3 Oeste 10 Sudoeste 0 -- -- 69
2020-01-09 14:00:00 12.6 6 Sudoeste 15 Sudoeste 0 -- -- 74
2020-01-09 13:00:00 12.1 5 Oeste 8 Oeste 0 -- -- 75
2020-01-09 12:00:00 10.4 4 Oeste 8 Oeste 0 -- -- 81
2020-01-09 11:00:00 7.5 0 Calma 7 Sur 0 -- -- 94
2020-01-09 10:00:00 3 0 Calma 3 Este 0 -- -- 100
2020-01-09 09:00:00 1 0 Calma 8 Sudeste 0 -- -- 100
2020-01-09 08:00:00 0.6 0 Calma 4 Este 0 -- -- 100
2020-01-09 07:00:00 0.7 0 Calma 9 Noroeste 0 -- -- 100
2020-01-09 06:00:00 1.6 2 Norte 6 Sudeste 0 -- -- 100
2020-01-09 05:00:00 1.1 0 Calma 6 Sudeste 0 -- -- 100
2020-01-09 04:00:00 0.8 3 Sur 10 Noroeste 0 -- -- 99
2020-01-09 03:00:00 1.1 3 Sudeste 5 Sudeste 0 -- -- 99
2020-01-09 02:00:00 2 0 Calma 6 Sudeste 0 -- -- 100
2020-01-09 01:00:00 1.7 3 Sur 5 Norte 0 -- -- 97
2020-01-09 00:00:00 2.5 2 Norte 4 Sudeste 0 -- -- 98
2020-01-08 23:00:00 3.4 0 Calma 4 Sudeste 0 -- -- 98
2020-01-08 22:00:00 4 3 Sudeste 5 Sudeste 0 -- -- 96
2020-01-08 21:00:00 5.4 0 Calma 4 Nordeste 0 -- -- 94
2020-01-08 20:00:00 6.9 3 Este 6 Este 0 -- -- 93
2020-01-08 19:00:00 8.5 3 Nordeste 5 Este 0 -- -- 87
2020-01-08 18:00:00 12.9 0 Calma 9 Sudoeste 0 -- -- 72
2020-01-08 17:00:00 14.6 6 Sudoeste 10 Sudoeste 0 -- -- 69
2020-01-08 16:00:00 15.7 4 Oeste 9 Sudoeste 0 -- -- 61
2020-01-08 15:00:00 14.6 4 Oeste 9 Sudoeste 0 -- -- 65
2020-01-08 14:00:00 13.5 3 Sur 7 Sur 0 -- -- 66
2020-01-08 13:00:00 11 4 Oeste 6 Oeste 0 -- -- 77
2020-01-08 12:00:00 8.3 3 Sur 6 Sur 0 -- -- 86
2020-01-08 11:00:00 3.6 0 Calma 4 Sur 0 -- -- 100
2020-01-08 10:00:00 0.5 3 Sur 6 Este 0 -- -- 100
2020-01-08 09:00:00 -1 3 Este 4 Este 0 -- -- 100
2020-01-08 08:00:00 0 2 Este 5 Sudeste 0 -- -- 100
2020-01-08 07:00:00 -1.1 4 Sudeste 5 Sudeste 0 -- -- 100
2020-01-08 06:00:00 -0.4 0 Calma 4 Noroeste 0 -- -- 99
2020-01-08 05:00:00 0.5 0 Calma 5 Sudeste 0 -- -- 100
2020-01-08 04:00:00 0.7 0 Calma 3 Sudeste 0 -- -- 100
2020-01-08 03:00:00 0.8 0 Calma 3 Sudeste 0 -- -- 99
2020-01-08 02:00:00 1.6 0 Calma 4 Sudeste 0 -- -- 99
2020-01-08 01:00:00 2.2 0 Calma 3 Este 0 -- -- 98
2020-01-08 00:00:00 3.1 0 Calma 4 Norte 0 -- -- 97
2020-01-07 23:00:00 4.1 0 Calma 3 Este 0 -- -- 97
2020-01-07 22:00:00 4.6 0 Calma 4 Sudeste 0 -- -- 96
2020-01-07 21:00:00 6 2 Norte 6 Noroeste 0 -- -- 93
2020-01-07 20:00:00 7.4 0 Calma 6 Nordeste 0 -- -- 90
2020-01-07 19:00:00 9.4 4 Nordeste 6 Sudoeste 0 -- -- 84
2020-01-07 18:00:00 14.4 4 Oeste 7 Oeste 0 -- -- 66
2020-01-07 17:00:00 16 3 Oeste 9 Oeste 0 -- -- 61
2020-01-07 16:00:00 16.6 3 Sudoeste 11 Sur 0 -- -- 57
2020-01-07 15:00:00 16 4 Sur 10 Sur 0 -- -- 55
2020-01-07 14:00:00 14.9 3 Sur 9 Sur 0 -- -- 62
2020-01-07 13:00:00 12.9 2 Sur 6 Sudoeste 0 -- -- 72
2020-01-07 12:00:00 9 0 Calma 5 Noroeste 0 -- -- 88
2020-01-07 11:00:00 5.2 4 Noroeste 7 Noroeste 0 -- -- 98
2020-01-07 10:00:00 3.2 0 Calma 5 Sudeste 0 -- -- 100
2020-01-07 09:00:00 -0.4 0 Calma 3 Sur 0 -- -- 100
2020-01-07 08:00:00 -0.3 0 Calma 3 Sudeste 0 -- -- 100
2020-01-07 07:00:00 -0.2 0 Calma 4 Nordeste 0 -- -- 99
2020-01-07 06:00:00 -0.1 0 Calma 4 Sur 0 -- -- 100
2020-01-07 05:00:00 0.5 3 Noroeste 4 Noroeste 0 -- -- 99
2020-01-07 04:00:00 0.5 0 Calma 5 Sudeste 0 -- -- 99
2020-01-07 03:00:00 0.7 0 Calma 4 Norte 0 -- -- 99
2020-01-07 02:00:00 1.6 0 Calma 5 Sudeste 0 -- -- 98
2020-01-07 01:00:00 1.7 3 Sudeste 4 Sudeste 0 -- -- 98
2020-01-07 00:00:00 2.8 0 Calma 4 Este 0 -- -- 96
2020-01-06 23:00:00 3.7 0 Calma 5 Noroeste 0 -- -- 95
2020-01-06 22:00:00 4.9 2 Este 5 Noroeste 0 -- -- 92
2020-01-06 21:00:00 6.8 3 Norte 9 Nordeste 0 -- -- 89
2020-01-06 20:00:00 8 3 Noroeste 8 Nordeste 0 -- -- 84
2020-01-06 19:00:00 8.7 3 Nordeste 5 Nordeste 0 -- -- 86
2020-01-06 18:00:00 12.9 4 Oeste 6 Noroeste 0 -- -- 71
2020-01-06 17:00:00 14.5 4 Oeste 8 Oeste 0 -- -- 64
2020-01-06 16:00:00 15.2 4 Sudoeste 9 Sur 0 -- -- 60
2020-01-06 15:00:00 14.5 5 Sudoeste 12 Sur 0 -- -- 59
2020-01-06 14:00:00 13.8 4 Sur 10 Sur 0 -- -- 64
2020-01-06 13:00:00 12.2 0 Calma 7 Sur 0 -- -- 72
2020-01-06 12:00:00 9.1 3 Noroeste 5 Noroeste 0 -- -- 83
2020-01-06 11:00:00 5.2 5 Noroeste 10 Noroeste 0 -- -- 96
2020-01-06 10:00:00 3.8 3 Sur 9 Sudeste 0 -- -- 100